Time;durP1;ratioP1;P1;durP2;ratioP2;P2;SDS_P1;SDS_P2;PMS_P1;PMS_P2;Temp;Humidity;BMP_temperature;BMP_pressure;BME280_temperature;BME280_humidity;BME280_pressure;Samples;Min_cycle;Max_cycle;Signal;HPM_P1;HPM_P2
2022/12/31 14:44:53;;;;;;;10.53;3.52;;;;;;;14.37;66.83;99793.69;2451635;78;25896;-81
2022/12/31 14:48:55;;;;;;;4.45;3.12;;;;;;;14.29;66.00;99787.59;2427675;80;25783;-76
2022/12/31 14:52:52;;;;;;;4.65;3.58;;;;;;;14.29;65.35;99791.52;2406596;80;25814;-75
2022/12/31 14:56:46;;;;;;;3.40;3.10;;;;;;;14.36;65.15;99790.64;2410968;80;25880;-76
2022/12/31 15:00:49;;;;;;;;;;;;;;;;;;;;;
2022/12/31 15:04:34;;;;;;;4.08;3.05;;;;;;;14.49;64.37;99791.05;2290550;83;25831;-76
2022/12/31 15:08:50;;;;;;;;;;;;;;;;;;;;;
2022/12/31 15:12:55;;;;;;;5.15;3.05;;;;;;;14.68;63.61;99791.94;2255481;86;25881;-76
2022/12/31 15:16:57;;;;;;;3.65;3.17;;;;;;;14.82;63.35;99781.39;2265509;85;26459;-76
2022/12/31 15:21:27;;;;;;;;;;;;;;;;;;;;;
2022/12/31 15:25:03;;;;;;;7.08;3.87;;;;;;;14.98;62.64;99775.62;2224870;87;25877;-78
2022/12/31 15:28:43;;;;;;;4.17;3.22;;;;;;;15.05;62.36;99779.97;2224413;87;25834;-78
2022/12/31 15:32:42;;;;;;;4.42;3.22;;;;;;;15.12;62.20;99779.09;2259683;86;25860;-80
2022/12/31 15:36:42;;;;;;;4.10;3.00;;;;;;;15.21;61.79;99766.34;2220686;87;25700;-78
2022/12/31 15:44:38;;;;;;;5.67;3.27;;;;;;;15.26;61.29;99765.45;2115896;91;25805;-80
2022/12/31 15:52:46;;;;;;;;;;;;;;;;;;;;;
2022/12/31 15:56:50;;;;;;;4.22;2.80;;;;;;;15.34;60.70;99766.72;2123889;91;25806;-76
2022/12/31 16:01:06;;;;;;;3.50;3.17;;;;;;;15.47;60.49;99774.95;2090697;92;25898;-77
2022/12/31 16:04:53;;;;;;;5.25;2.72;;;;;;;15.59;60.22;99776.20;2099274;92;25908;-77
2022/12/31 16:08:30;;;;;;;4.85;4.10;;;;;;;15.68;59.88;99781.85;2074614;92;25799;-77
2022/12/31 16:12:21;;;;;;;3.98;2.95;;;;;;;15.73;59.70;99783.16;2120483;90;25732;-76
2022/12/31 16:16:28;;;;;;;4.03;2.92;;;;;;;15.79;59.49;99788.34;2065076;92;25716;-80
2022/12/31 16:20:04;;;;;;;4.47;3.72;;;;;;;15.85;59.31;99777.79;2084099;92;25703;-77
2022/12/31 16:24:00;;;;;;;;;;;;;;;;;;;;;
2022/12/31 16:32:07;;;;;;;4.70;3.20;;;;;;;15.98;58.75;99804.41;2109533;91;26045;-76
2022/12/31 16:35:45;;;;;;;4.08;3.22;;;;;;;16.02;58.62;99811.39;2126020;91;25772;-76
2022/12/31 16:43:42;;;;;;;3.77;3.20;;;;;;;16.08;58.38;99813.55;2082450;93;25764;-76
2022/12/31 16:47:26;;;;;;;3.95;2.95;;;;;;;16.12;58.26;99818.77;2087315;91;26561;-77
2022/12/31 16:50:58;;;;;;;4.15;3.75;;;;;;;16.11;58.16;99812.22;2103212;93;25733;-76
2022/12/31 16:54:45;;;;;;;3.47;3.10;;;;;;;16.10;58.08;99801.25;2084928;92;26293;-81
2022/12/31 16:58:43;;;;;;;6.08;2.75;;;;;;;16.11;58.03;99800.39;2140863;90;25799;-83
2022/12/31 17:02:35;;;;;;;3.00;2.67;;;;;;;16.11;57.97;99809.59;2111355;92;26072;-76
2022/12/31 17:06:32;;;;;;;4.78;2.90;;;;;;;16.09;57.95;99808.72;2071443;93;26599;-76
2022/12/31 17:10:23;;;;;;;;;;;;;;;;;;;;;
2022/12/31 17:14:06;;;;;;;3.55;3.25;;;;;;;16.01;57.98;99806.16;2071784;93;25753;-76
2022/12/31 17:17:36;;;;;;;5.90;2.77;;;;;;;16.01;58.00;99807.47;2045369;96;25898;-78
2022/12/31 17:21:13;;;;;;;3.92;2.95;;;;;;;16.03;58.00;99808.31;2070101;94;25771;-76
2022/12/31 17:24:43;;;;;;;3.87;2.92;;;;;;;15.99;57.99;99806.15;2061725;92;25844;-76
2022/12/31 17:29:06;;;;;;;;;;;;;;;;;;;;;
2022/12/31 17:32:44;;;;;;;4.17;3.12;;;;;;;16.02;58.03;99811.39;2063887;93;25801;-76
2022/12/31 17:36:26;;;;;;;3.60;3.20;;;;;;;16.06;57.99;99829.33;2029651;93;25945;-76
2022/12/31 17:40:01;;;;;;;3.67;3.10;;;;;;;16.09;57.96;99828.44;2045560;95;25727;-77
2022/12/31 17:43:44;;;;;;;3.33;3.02;;;;;;;16.08;57.90;99824.94;2219383;87;25954;-75
2022/12/31 17:47:18;;;;;;;4.65;3.20;;;;;;;16.10;57.90;99828.86;2280605;84;26122;-74
2022/12/31 17:51:09;;;;;;;3.25;2.62;;;;;;;16.10;57.88;99830.17;2281195;85;25726;-78
2022/12/31 17:54:49;;;;;;;4.25;3.22;;;;;;;16.12;57.85;99838.94;2291157;86;25214;-79
2022/12/31 17:58:43;;;;;;;3.20;2.90;;;;;;;16.12;57.85;99845.51;2200148;89;26049;-90
2022/12/31 18:02:19;;;;;;;3.77;2.70;;;;;;;16.14;57.80;99849.02;2137894;90;25764;-87
2022/12/31 18:05:52;;;;;;;3.83;2.45;;;;;;;16.14;57.79;99834.55;2151532;90;25936;-77
2022/12/31 18:09:30;;;;;;;4.03;2.45;;;;;;;16.15;57.79;99837.59;2158002;90;25738;-81
2022/12/31 18:13:21;;;;;;;;;;;;;;;;;;;;;
2022/12/31 18:16:45;;;;;;;4.92;3.17;;;;;;;16.14;57.75;99840.68;2150506;90;25860;-75
2022/12/31 18:20:26;;;;;;;3.37;2.77;;;;;;;16.16;57.78;99844.59;2154412;90;25774;-88
2022/12/31 18:23:54;;;;;;;3.50;3.05;;;;;;;16.21;57.75;99850.27;2129649;90;25893;-79
2022/12/31 18:27:26;;;;;;;3.20;2.70;;;;;;;16.24;57.67;99856.81;2165570;90;25728;-78
2022/12/31 18:31:14;;;;;;;3.52;3.10;;;;;;;16.26;57.66;99843.64;2182828;86;25760;-80
2022/12/31 18:34:59;;;;;;;4.53;3.42;;;;;;;16.30;57.61;99850.64;2293281;84;25789;-81
2022/12/31 18:38:36;;;;;;;3.47;3.15;;;;;;;16.34;57.52;99849.73;2325760;83;25810;-86
2022/12/31 18:42:19;;;;;;;2.67;2.37;;;;;;;16.37;57.48;99851.43;2373341;81;25690;-78
2022/12/31 18:46:14;;;;;;;3.77;3.00;;;;;;;16.39;57.44;99843.09;2372990;82;25730;-79
2022/12/31 18:49:40;;;;;;;3.65;2.98;;;;;;;16.43;57.42;99847.44;2374952;82;25724;-81
2022/12/31 18:53:15;;;;;;;4.03;3.52;;;;;;;16.45;57.34;99845.23;2355448;82;25960;-79
2022/12/31 18:56:58;;;;;;;3.30;2.92;;;;;;;16.47;57.32;99842.61;2367290;82;26211;-86
2022/12/31 19:00:29;;;;;;;7.33;3.77;;;;;;;16.50;57.29;99844.77;2370836;81;25796;-82
2022/12/31 19:04:37;;;;;;;9.45;4.17;;;;;;;16.52;57.27;99841.66;2343415;83;25891;-75
2022/12/31 19:08:37;;;;;;;;;;;;;;;;;;;;;
2022/12/31 19:11:58;;;;;;;3.65;3.27;;;;;;;16.58;57.39;99851.70;2230946;86;25893;-82
2022/12/31 19:16:06;;;;;;;;;;;;;;;;;;;;;
2022/12/31 19:19:35;;;;;;;;;;;;;;;;;;;;;
2022/12/31 19:23:04;;;;;;;5.87;3.17;;;;;;;16.45;57.64;99869.36;2172002;89;25736;-77
2022/12/31 19:26:40;;;;;;;3.95;3.30;;;;;;;16.43;57.99;99870.67;2136861;91;25828;-80
2022/12/31 19:30:35;;;;;;;5.55;4.05;;;;;;;16.44;57.96;99878.15;2138347;91;25697;-77
2022/12/31 19:34:32;;;;;;;4.40;4.00;;;;;;;16.44;58.05;99860.59;2068063;93;25728;-79
2022/12/31 19:38:13;;;;;;;12.73;4.03;;;;;;;16.42;58.04;99872.02;2035978;95;26013;-78
2022/12/31 19:41:53;;;;;;;4.08;3.62;;;;;;;16.44;58.25;99878.15;2038345;94;25779;-77
2022/12/31 19:45:35;;;;;;;;;;;;;;;;;;;;;
2022/12/31 19:49:26;;;;;;;8.60;4.00;;;;;;;16.47;58.27;99882.07;2106071;90;25780;-80
2022/12/31 19:53:08;;;;;;;4.35;3.60;;;;;;;16.47;58.26;99886.89;2101563;92;25771;-81
2022/12/31 19:56:58;;;;;;;3.90;3.50;;;;;;;16.47;58.22;99876.36;2103027;92;26147;-77
2022/12/31 20:00:46;;;;;;;;;;;;;;;;;;;;;
2022/12/31 20:04:17;;;;;;;;;;;;;;;;;;;;;
2022/12/31 20:08:21;;;;;;;5.97;3.70;;;;;;;16.23;58.27;99869.95;2107286;92;25857;-84
2022/12/31 20:11:43;;;;;;;4.15;3.45;;;;;;;16.04;58.42;99881.94;2109963;90;26019;-79
2022/12/31 20:15:21;;;;;;;4.87;3.52;;;;;;;15.77;58.69;99877.72;2046445;93;25826;-76
2022/12/31 20:19:03;;;;;;;4.00;3.10;;;;;;;15.59;59.16;99878.67;2055909;94;25993;-77
2022/12/31 20:22:41;;;;;;;4.20;3.62;;;;;;;15.59;59.56;99869.89;1926292;101;25818;-79
2022/12/31 20:26:19;;;;;;;5.15;3.83;;;;;;;15.74;59.40;99867.67;1893037;104;25954;-77
2022/12/31 20:29:45;;;;;;;;;;;;;;;15.84;59.31;99852.28;1946717;99;25909;-76
2022/12/31 20:33:32;;;;;;;;;;;;;;;;;;;;;
2022/12/31 20:40:48;;;;;;;7.47;4.28;;;;;;;15.38;59.61;99879.19;1920977;100;26636;-81
2022/12/31 20:44:37;;;;;;;4.92;4.03;;;;;;;15.22;60.41;99874.42;1914649;102;25926;-80
2022/12/31 20:48:27;;;;;;;;;;;;;;;;;;;;;
2022/12/31 20:52:11;;;;;;;3.50;3.20;;;;;;;15.54;60.19;99887.00;1904470;101;25778;-77
2022/12/31 20:55:44;;;;;;;9.90;4.33;;;;;;;15.67;60.01;99891.80;1916592;101;25792;-79
2022/12/31 21:06:25;;;;;;;5.95;3.70;;;;;;;15.95;59.63;99892.95;1868208;104;25812;-78
2022/12/31 21:10:10;;;;;;;6.87;4.25;;;;;;;16.05;59.48;99901.21;1852951;105;25773;-80
2022/12/31 21:13:48;;;;;;;5.55;4.50;;;;;;;16.13;59.30;99881.43;1830396;104;25385;-81
2022/12/31 21:17:17;;;;;;;4.75;4.33;;;;;;;16.18;59.27;99881.84;1808220;106;25840;-83
2022/12/31 21:21:16;;;;;;;5.45;4.20;;;;;;;16.22;59.10;99890.58;1847438;103;25875;-76
2022/12/31 21:24:52;;;;;;;4.00;3.55;;;;;;;16.24;58.94;99901.52;1933552;102;25892;-84
2022/12/31 21:28:34;;;;;;;4.62;4.10;;;;;;;16.26;58.87;99890.53;1934061;102;25780;-79
2022/12/31 21:32:05;;;;;;;5.62;5.03;;;;;;;16.24;58.70;99888.82;1933453;100;25851;-87
2022/12/31 21:35:51;;;;;;;4.12;3.72;;;;;;;16.25;58.70;99900.63;1938952;98;25329;-82
2022/12/31 21:39:18;;;;;;;5.20;4.22;;;;;;;16.28;58.64;99892.72;2036915;91;25831;-77
2022/12/31 21:42:56;;;;;;;4.10;3.70;;;;;;;16.27;58.56;99887.48;2064402;93;25743;-82
2022/12/31 21:46:52;;;;;;;6.40;4.37;;;;;;;16.28;58.54;99890.54;2082956;93;26286;-76
2022/12/31 21:50:31;;;;;;;4.05;3.35;;;;;;;16.23;58.44;99891.00;2046805;95;25948;-87
2022/12/31 21:58:14;;;;;;;3.92;3.42;;;;;;;16.19;58.48;99885.34;2013981;96;25738;-76
2022/12/31 22:06:04;;;;;;;3.40;3.10;;;;;;;16.20;58.50;99885.34;2070104;90;25828;-87
2022/12/31 22:09:35;;;;;;;3.37;3.08;;;;;;;16.25;58.43;99887.92;2162660;90;25839;-79
2022/12/31 22:13:19;;;;;;;4.80;3.37;;;;;;;16.24;58.43;99886.20;2221327;84;25802;-77
2022/12/31 22:16:57;;;;;;;5.72;3.72;;;;;;;16.23;58.41;99877.84;2309372;84;26513;-76
2022/12/31 22:20:47;;;;;;;5.28;4.30;;;;;;;16.23;58.35;99886.64;2321744;83;25946;-83
2022/12/31 22:24:31;;;;;;;5.97;3.70;;;;;;;16.23;58.34;99884.01;2309991;84;25863;-78
2022/12/31 22:27:54;;;;;;;3.87;3.47;;;;;;;16.22;58.31;99880.06;2327439;83;25731;-79
2022/12/31 22:31:41;;;;;;;4.97;3.80;;;;;;;16.22;58.33;99881.38;2321334;83;25814;-82
2022/12/31 22:35:04;;;;;;;8.53;3.70;;;;;;;16.22;58.30;99876.11;2322923;83;26362;-86
2022/12/31 22:38:31;;;;;;;5.67;3.72;;;;;;;16.22;58.29;99869.54;2319827;84;25945;-80
2022/12/31 22:46:00;;;;;;;5.17;4.20;;;;;;;16.30;58.26;99876.95;2314943;83;25793;-77
2022/12/31 22:49:38;;;;;;;3.60;3.30;;;;;;;16.27;58.14;99871.27;2251445;83;26001;-75
2022/12/31 22:53:09;;;;;;;10.15;3.45;;;;;;;16.22;58.13;99880.92;2250054;84;26289;-73
2022/12/31 22:56:41;;;;;;;4.58;3.83;;;;;;;16.23;59.31;99883.11;2273306;84;25743;-74
2022/12/31 23:00:08;;;;;;;5.65;4.47;;;;;;;16.66;60.21;99894.16;2270182;84;25917;-76
2022/12/31 23:03:37;;;;;;;41.98;14.78;;;;;;;17.09;60.12;99887.64;2203862;88;25726;-80
2022/12/31 23:07:14;;;;;;;13.98;8.83;;;;;;;17.47;60.12;99877.51;2240393;87;25996;-79
2022/12/31 23:32:46;;;;;;;21.45;13.00;;;;;;;18.27;55.84;99875.55;2500327;76;25537;-77
2022/12/31 23:36:33;;;;;;;15.25;11.22;;;;;;;18.05;55.44;99882.91;2314531;84;25842;-75
2022/12/31 23:40:22;;;;;;;14.45;10.53;;;;;;;17.81;55.46;99888.09;2293648;84;25643;-75
2022/12/31 23:44:22;;;;;;;11.88;8.80;;;;;;;17.67;55.53;99886.48;2293750;85;25877;-77
2022/12/31 23:47:53;;;;;;;12.05;8.23;;;;;;;17.53;55.55;99889.75;2277946;85;26511;-76
2022/12/31 23:51:41;;;;;;;;;;;;;;;;;;;;;
2022/12/31 23:55:10;;;;;;;;;;;;;;;;;;;;;
2022/12/31 23:59:20;;;;;;;6.03;5.20;;;;;;;17.22;55.82;99869.05;2278702;85;26448;-75
